createdAt,value
2022-09-17T00:02:01.449Z,99.90
2022-09-17T00:04:31.230Z,99.90
2022-09-17T00:06:59.519Z,99.90
2022-09-17T00:09:27.675Z,99.90
2022-09-17T00:11:57.460Z,99.90
2022-09-17T00:14:25.549Z,99.90
2022-09-17T00:16:59.926Z,99.90
2022-09-17T00:19:29.983Z,99.90
2022-09-17T00:21:58.064Z,99.90
2022-09-17T00:24:26.398Z,99.90
2022-09-17T00:26:56.402Z,99.90
2022-09-17T00:29:24.474Z,99.90
2022-09-17T00:31:52.578Z,99.90
2022-09-17T00:34:22.907Z,99.90
2022-09-17T00:36:51.099Z,99.90
2022-09-17T00:39:19.182Z,99.90
2022-09-17T00:41:47.836Z,99.90
2022-09-17T00:44:44.275Z,99.90
2022-09-17T00:47:20.345Z,99.90
2022-09-17T00:49:50.448Z,99.90
2022-09-17T00:52:21.976Z,99.90
2022-09-17T00:54:56.319Z,99.90
2022-09-17T00:57:24.734Z,99.90
2022-09-17T00:59:55.055Z,99.90
2022-09-17T01:02:24.988Z,99.90
2022-09-17T01:04:53.005Z,99.90
2022-09-17T01:07:36.175Z,99.90
2022-09-17T01:10:26.386Z,99.90
2022-09-17T01:13:08.182Z,99.90
2022-09-17T01:15:48.688Z,99.90
2022-09-17T01:18:27.956Z,99.90
2022-09-17T01:21:27.720Z,99.90
2022-09-17T01:24:30.143Z,99.90
2022-09-17T01:27:37.358Z,99.90
2022-09-17T01:30:55.924Z,99.90
2022-09-17T01:33:30.698Z,99.90
2022-09-17T01:36:09.516Z,99.90
2022-09-17T01:38:46.092Z,99.90
2022-09-17T01:41:23.746Z,99.90
2022-09-17T01:43:57.250Z,99.90
2022-09-17T01:46:32.461Z,99.90
2022-09-17T01:49:04.027Z,99.90
2022-09-17T01:51:38.365Z,99.90
2022-09-17T01:54:12.609Z,99.90
2022-09-17T01:56:44.446Z,99.90
2022-09-17T01:59:18.205Z,99.90
2022-09-17T02:01:53.280Z,99.90
2022-09-17T02:04:26.618Z,99.90
2022-09-17T02:06:59.858Z,99.90
2022-09-17T02:09:32.422Z,99.90
2022-09-17T02:12:03.744Z,99.90
2022-09-17T02:14:37.704Z,99.90
2022-09-17T02:17:13.238Z,99.90
2022-09-17T02:19:42.472Z,99.90
2022-09-17T02:22:22.313Z,99.90
2022-09-17T02:25:02.295Z,99.90
2022-09-17T02:27:46.217Z,99.90
2022-09-17T02:30:15.197Z,99.90
2022-09-17T02:32:46.452Z,99.90
2022-09-17T02:35:15.203Z,99.90
2022-09-17T02:37:44.131Z,99.90
2022-09-17T02:40:14.992Z,99.90
2022-09-17T02:42:59.845Z,99.90
2022-09-17T02:45:41.978Z,99.90
2022-09-17T02:48:36.739Z,99.90
2022-09-17T02:51:22.220Z,99.90
2022-09-17T02:53:59.255Z,99.90
2022-09-17T02:56:38.714Z,99.90
2022-09-17T02:59:13.751Z,99.90
2022-09-17T03:01:46.022Z,99.90
2022-09-17T03:04:17.804Z,99.90
2022-09-17T03:06:49.539Z,99.90
2022-09-17T03:09:17.823Z,99.90
2022-09-17T03:11:46.071Z,99.90
2022-09-17T03:14:13.983Z,99.90
2022-09-17T03:16:41.876Z,99.90
2022-09-17T03:19:09.917Z,99.90
2022-09-17T03:21:39.310Z,99.90
2022-09-17T03:24:08.307Z,99.90
2022-09-17T03:26:36.320Z,99.90
2022-09-17T03:29:04.571Z,99.90
2022-09-17T03:31:33.026Z,99.90
2022-09-17T03:34:01.311Z,99.90
2022-09-17T03:36:29.559Z,99.90
2022-09-17T03:39:01.819Z,99.90
2022-09-17T03:41:29.922Z,99.90
2022-09-17T03:43:57.987Z,99.90
2022-09-17T03:46:26.146Z,99.90
2022-09-17T03:48:54.241Z,99.90
2022-09-17T03:51:22.549Z,99.90
2022-09-17T03:53:51.194Z,99.90
2022-09-17T03:56:20.779Z,99.90
2022-09-17T03:58:50.556Z,99.90
2022-09-17T04:01:20.707Z,99.90
2022-09-17T04:03:48.789Z,99.90
2022-09-17T04:06:16.776Z,99.90
2022-09-17T04:08:44.846Z,99.90
2022-09-17T04:11:12.965Z,99.90
2022-09-17T04:13:42.601Z,99.90
2022-09-17T04:16:12.377Z,99.90
2022-09-17T04:18:40.590Z,99.90
2022-09-17T04:21:09.977Z,99.90
2022-09-17T04:23:38.224Z,99.90
2022-09-17T04:26:06.452Z,99.90
2022-09-17T04:28:36.463Z,99.90
2022-09-17T04:31:05.941Z,99.90
2022-09-17T04:33:33.958Z,99.90
2022-09-17T04:36:02.675Z,99.90
2022-09-17T04:38:30.860Z,99.90
2022-09-17T04:40:59.015Z,99.90
2022-09-17T04:43:27.335Z,99.90
2022-09-17T04:45:55.428Z,99.90
2022-09-17T04:48:25.256Z,99.90
2022-09-17T04:50:53.197Z,99.90
2022-09-17T04:53:21.521Z,99.90
2022-09-17T04:55:49.555Z,99.90
2022-09-17T04:58:17.705Z,99.90
2022-09-17T05:00:46.203Z,99.90
2022-09-17T05:03:14.182Z,99.90
2022-09-17T05:05:43.766Z,99.90
2022-09-17T05:08:11.854Z,99.90
2022-09-17T05:10:39.808Z,99.90
2022-09-17T05:13:07.995Z,99.90
2022-09-17T05:15:36.783Z,99.90
2022-09-17T05:18:05.531Z,99.90
2022-09-17T05:20:33.573Z,99.90
2022-09-17T05:23:02.829Z,99.90
2022-09-17T05:25:34.666Z,99.90
2022-09-17T05:28:04.425Z,99.90
2022-09-17T05:30:32.563Z,99.90
2022-09-17T05:33:02.671Z,99.90
2022-09-17T05:35:31.672Z,99.90
2022-09-17T05:38:03.813Z,99.90
2022-09-17T05:40:33.097Z,99.90
2022-09-17T05:43:02.258Z,99.90
2022-09-17T05:45:31.117Z,99.90
2022-09-17T05:48:02.032Z,99.90
2022-09-17T05:50:31.065Z,99.90
2022-09-17T05:53:04.494Z,99.90
2022-09-17T05:55:34.954Z,99.90
2022-09-17T05:58:10.188Z,99.90
2022-09-17T06:00:38.809Z,99.90
2022-09-17T06:03:07.138Z,99.90
2022-09-17T06:05:35.306Z,99.90
2022-09-17T06:08:03.757Z,99.90
2022-09-17T06:10:33.229Z,99.90
2022-09-17T06:13:01.465Z,99.90
2022-09-17T06:15:29.692Z,99.90
2022-09-17T06:17:58.219Z,99.90
2022-09-17T06:20:26.299Z,99.90
2022-09-17T06:22:58.106Z,99.90
2022-09-17T06:25:26.440Z,99.90
2022-09-17T06:27:55.787Z,99.90
2022-09-17T06:30:23.873Z,99.90
2022-09-17T06:32:51.733Z,99.90
2022-09-17T06:35:20.433Z,99.90
2022-09-17T06:37:48.936Z,99.90
2022-09-17T06:40:18.340Z,99.90
2022-09-17T06:42:46.382Z,99.90
2022-09-17T06:45:18.027Z,99.90
2022-09-17T06:47:46.056Z,99.90
2022-09-17T06:50:15.936Z,99.90
2022-09-17T06:52:50.405Z,99.90
2022-09-17T06:55:18.598Z,99.90
2022-09-17T06:57:47.174Z,99.90
2022-09-17T07:00:16.778Z,99.90
2022-09-17T07:02:44.874Z,99.90
2022-09-17T07:05:12.960Z,99.90
2022-09-17T07:07:41.101Z,99.90
2022-09-17T07:10:09.822Z,99.90
2022-09-17T07:12:45.499Z,99.90
2022-09-17T07:15:17.626Z,99.90
2022-09-17T07:17:45.736Z,99.90
2022-09-17T07:20:14.158Z,99.90
2022-09-17T07:22:42.539Z,99.90
2022-09-17T07:25:12.002Z,99.90
2022-09-17T07:27:40.222Z,99.90
2022-09-17T07:30:09.681Z,99.90
2022-09-17T07:32:39.558Z,99.90
2022-09-17T07:35:09.148Z,99.90
2022-09-17T07:37:37.303Z,99.90
2022-09-17T07:40:07.317Z,99.90
2022-09-17T07:42:35.547Z,99.90
2022-09-17T07:45:03.609Z,99.90
2022-09-17T07:47:31.451Z,99.90
2022-09-17T07:50:01.071Z,99.90
2022-09-17T07:52:29.197Z,99.90
2022-09-17T07:54:57.142Z,99.90
2022-09-17T07:57:25.342Z,99.90
2022-09-17T07:59:53.660Z,99.90
2022-09-17T08:02:24.163Z,99.90
2022-09-17T08:04:52.527Z,99.90
2022-09-17T08:07:22.251Z,99.90
2022-09-17T08:09:50.237Z,99.90
2022-09-17T08:12:19.470Z,99.90
2022-09-17T08:14:47.500Z,99.90
2022-09-17T08:17:15.297Z,99.90
2022-09-17T08:19:43.097Z,99.90
2022-09-17T08:22:11.401Z,99.90
2022-09-17T08:24:42.829Z,99.90
2022-09-17T08:27:10.727Z,99.90
2022-09-17T08:29:38.764Z,99.90
2022-09-17T08:32:06.816Z,99.90
2022-09-17T08:34:36.893Z,99.90
2022-09-17T08:37:05.073Z,99.90
2022-09-17T08:39:33.488Z,99.90
2022-09-17T08:42:14.241Z,99.90
2022-09-17T08:44:45.274Z,99.90
2022-09-17T08:47:19.319Z,99.90
2022-09-17T08:49:52.155Z,99.90
2022-09-17T08:52:47.493Z,99.90
2022-09-17T08:55:34.947Z,99.90
2022-09-17T08:58:28.155Z,99.90
2022-09-17T09:01:04.378Z,99.90
2022-09-17T09:03:43.904Z,99.90
2022-09-17T09:06:15.538Z,99.90
2022-09-17T09:08:46.088Z,99.90
2022-09-17T09:11:18.307Z,99.90
2022-09-17T09:13:50.922Z,99.90
2022-09-17T09:16:21.890Z,99.90
2022-09-17T09:18:55.331Z,99.90
2022-09-17T09:21:28.602Z,99.90
2022-09-17T09:24:01.131Z,99.90
2022-09-17T09:26:44.933Z,99.90
2022-09-17T09:29:24.616Z,99.90
2022-09-17T09:32:15.980Z,99.90
2022-09-17T09:34:46.237Z,99.90
2022-09-17T09:37:21.713Z,99.90
2022-09-17T09:39:52.714Z,99.90
2022-09-17T09:42:30.482Z,99.90
2022-09-17T09:45:05.192Z,99.90
2022-09-17T09:47:52.269Z,99.90
2022-09-17T09:50:55.056Z,99.90
2022-09-17T09:53:34.759Z,99.90
2022-09-17T09:56:13.781Z,99.90
2022-09-17T09:58:42.959Z,99.90
2022-09-17T10:01:20.461Z,99.90
2022-09-17T10:03:51.907Z,99.90
2022-09-17T10:06:22.767Z,99.90
2022-09-17T10:09:13.660Z,99.90
2022-09-17T10:11:42.650Z,99.90
2022-09-17T10:14:24.675Z,99.90
2022-09-17T10:17:16.836Z,99.90
2022-09-17T10:19:47.099Z,99.90
2022-09-17T10:22:26.326Z,99.90
2022-09-17T10:24:56.189Z,99.90
2022-09-17T10:27:26.499Z,99.90
2022-09-17T10:30:04.680Z,99.90
2022-09-17T10:32:35.439Z,99.90
2022-09-17T10:35:07.379Z,99.90
2022-09-17T10:37:43.420Z,99.90
2022-09-17T10:40:30.783Z,99.90
2022-09-17T10:43:22.722Z,99.90
2022-09-17T10:46:00.023Z,99.90
2022-09-17T10:48:33.788Z,99.90
2022-09-17T10:51:03.445Z,99.90
2022-09-17T10:53:31.647Z,99.90
2022-09-17T10:56:10.409Z,99.90
2022-09-17T10:58:53.253Z,99.90
2022-09-17T11:01:37.065Z,99.90
2022-09-17T11:04:30.947Z,99.90
2022-09-17T11:07:36.792Z,99.90
2022-09-17T11:10:15.409Z,99.90
2022-09-17T11:13:04.299Z,99.90
2022-09-17T11:15:55.010Z,99.90
2022-09-17T11:18:37.696Z,99.90
2022-09-17T11:21:48.317Z,99.90
2022-09-17T11:24:46.659Z,99.90
2022-09-17T11:27:31.266Z,99.90
2022-09-17T11:30:11.376Z,99.90
2022-09-17T11:33:04.340Z,99.90
2022-09-17T11:35:36.440Z,99.90
2022-09-17T11:38:09.721Z,99.90
2022-09-17T11:40:44.428Z,99.90
2022-09-17T11:43:20.843Z,99.90
2022-09-17T11:45:59.183Z,99.90
2022-09-17T11:48:35.011Z,99.90
2022-09-17T11:51:09.048Z,99.90
2022-09-17T11:53:42.419Z,99.90
2022-09-17T11:56:18.822Z,99.90
2022-09-17T11:58:51.674Z,99.90
2022-09-17T12:01:27.466Z,99.90
2022-09-17T12:04:00.877Z,99.90
2022-09-17T12:06:38.154Z,99.90
2022-09-17T12:09:11.667Z,99.90
2022-09-17T12:11:44.649Z,99.90
2022-09-17T12:14:22.296Z,99.90
2022-09-17T12:16:53.347Z,99.90
2022-09-17T12:19:40.846Z,99.90
2022-09-17T12:22:12.161Z,99.90
2022-09-17T12:24:40.484Z,99.90
2022-09-17T12:27:23.060Z,99.90
2022-09-17T12:30:08.214Z,99.90
2022-09-17T12:32:56.799Z,99.90
2022-09-17T12:38:42.650Z,99.90
2022-09-17T12:41:19.519Z,99.90
2022-09-17T12:44:01.830Z,99.90
2022-09-17T12:46:48.666Z,99.90
2022-09-17T12:49:36.416Z,99.90
2022-09-17T12:52:08.213Z,99.90
2022-09-17T12:55:11.652Z,99.90
2022-09-17T12:57:50.433Z,99.90
2022-09-17T13:00:20.179Z,99.90
2022-09-17T13:02:53.995Z,99.90
2022-09-17T13:05:48.731Z,99.90
2022-09-17T13:08:51.978Z,99.90
2022-09-17T13:11:55.009Z,99.80
2022-09-17T13:14:31.421Z,99.70
2022-09-17T13:17:06.539Z,99.40
2022-09-17T13:19:40.689Z,97.90
2022-09-17T13:22:14.812Z,94.60
2022-09-17T13:24:47.169Z,94.30
2022-09-17T13:27:23.571Z,94.20
2022-09-17T13:30:04.341Z,94.80
2022-09-17T13:33:01.401Z,95.40
2022-09-17T13:35:49.905Z,94.70
2022-09-17T13:38:23.067Z,94.20
2022-09-17T13:40:53.113Z,94.00
2022-09-17T13:43:26.589Z,94.90
2022-09-17T13:46:12.367Z,95.20
2022-09-17T13:48:50.604Z,95.50
2022-09-17T13:51:49.462Z,95.70
2022-09-17T13:54:19.049Z,96.00
2022-09-17T13:56:51.501Z,96.30
2022-09-17T13:59:21.932Z,95.70
2022-09-17T14:02:31.817Z,94.90
2022-09-17T14:05:32.952Z,94.50
2022-09-17T14:08:14.199Z,94.90
2022-09-17T14:10:45.121Z,95.00
2022-09-17T14:13:29.226Z,94.10
2022-09-17T14:16:24.507Z,94.90
2022-09-17T14:19:01.733Z,94.90
2022-09-17T14:21:32.859Z,95.10
2022-09-17T14:24:04.790Z,95.10
2022-09-17T14:26:55.831Z,95.50
2022-09-17T14:29:52.072Z,96.20
2022-09-17T14:32:30.079Z,96.00
2022-09-17T14:34:58.183Z,96.10
2022-09-17T14:37:26.565Z,96.60
2022-09-17T14:39:56.060Z,96.30
2022-09-17T14:42:35.956Z,96.40
2022-09-17T14:45:07.381Z,96.30
2022-09-17T14:47:35.357Z,96.60
2022-09-17T14:50:22.089Z,96.80
2022-09-17T14:52:51.186Z,96.90
2022-09-17T14:55:23.990Z,98.60
2022-09-17T14:57:54.487Z,99.90
2022-09-17T15:00:25.249Z,99.90
2022-09-17T15:02:56.062Z,99.90
2022-09-17T15:05:31.577Z,99.90
2022-09-17T15:08:15.077Z,99.90
2022-09-17T15:10:54.133Z,99.90
2022-09-17T15:13:26.372Z,99.90
2022-09-17T15:15:58.891Z,99.90
2022-09-17T15:18:37.018Z,99.90
2022-09-17T15:21:08.231Z,99.90
2022-09-17T15:23:37.027Z,99.90
2022-09-17T15:26:07.214Z,99.90
2022-09-17T15:28:38.195Z,99.90
2022-09-17T15:31:11.218Z,99.90
2022-09-17T15:33:39.306Z,99.90
2022-09-17T15:36:20.031Z,99.90
2022-09-17T15:38:48.324Z,99.90
2022-09-17T15:41:31.975Z,99.90
2022-09-17T15:44:30.760Z,99.90
2022-09-17T15:47:32.825Z,99.90
2022-09-17T15:50:18.708Z,99.90
2022-09-17T15:52:46.876Z,99.90
2022-09-17T15:55:32.259Z,99.90
2022-09-17T15:58:03.539Z,99.90
2022-09-17T16:00:32.017Z,99.90
2022-09-17T16:03:11.259Z,99.90
2022-09-17T16:05:50.825Z,99.90
2022-09-17T16:08:25.143Z,99.90
2022-09-17T16:10:53.172Z,99.90
2022-09-17T16:13:26.490Z,99.90
2022-09-17T16:15:56.505Z,99.90
2022-09-17T16:18:24.474Z,99.90
2022-09-17T16:20:52.398Z,99.90
2022-09-17T16:23:20.201Z,99.90
2022-09-17T16:25:48.113Z,99.90
2022-09-17T16:28:19.928Z,99.90
2022-09-17T16:30:50.365Z,99.90
2022-09-17T16:33:20.791Z,99.90
2022-09-17T16:35:48.615Z,99.90
2022-09-17T16:38:16.593Z,99.90
2022-09-17T16:40:47.138Z,99.90
2022-09-17T16:43:15.762Z,99.90
2022-09-17T16:45:43.730Z,99.90
2022-09-17T16:48:12.950Z,99.90
2022-09-17T16:50:43.989Z,99.90
2022-09-17T16:53:11.901Z,99.90
2022-09-17T16:55:40.203Z,99.90
2022-09-17T16:58:07.991Z,99.90
2022-09-17T17:00:36.059Z,99.90
2022-09-17T17:03:05.231Z,99.90
2022-09-17T17:05:37.880Z,99.90
2022-09-17T17:08:07.038Z,99.90
2022-09-17T17:10:35.592Z,99.90
2022-09-17T17:13:03.744Z,99.90
2022-09-17T17:15:31.875Z,99.90
2022-09-17T17:18:01.030Z,99.90
2022-09-17T17:20:29.425Z,99.90
2022-09-17T17:22:58.826Z,99.90
2022-09-17T17:25:29.385Z,99.90
2022-09-17T17:27:57.536Z,99.90
2022-09-17T17:30:25.622Z,99.90
2022-09-17T17:32:54.423Z,99.90
2022-09-17T17:35:23.598Z,99.90
2022-09-17T17:37:51.495Z,99.90
2022-09-17T17:40:21.232Z,99.90
2022-09-17T17:42:53.157Z,99.90
2022-09-17T17:45:21.110Z,99.90
2022-09-17T17:47:49.271Z,99.90
2022-09-17T17:50:17.414Z,99.90
2022-09-17T17:52:48.238Z,99.90
2022-09-17T17:55:17.193Z,99.90
2022-09-17T17:57:46.454Z,99.90
2022-09-17T18:00:17.105Z,99.90
2022-09-17T18:02:45.860Z,99.90
2022-09-17T18:05:14.230Z,99.90
2022-09-17T18:07:42.141Z,99.90
2022-09-17T18:10:11.027Z,99.90
2022-09-17T18:12:39.236Z,99.90
2022-09-17T18:15:10.110Z,99.90
2022-09-17T18:17:38.125Z,99.90
2022-09-17T18:20:06.829Z,99.90
2022-09-17T18:22:34.859Z,99.90
2022-09-17T18:25:02.709Z,99.90
2022-09-17T18:27:30.616Z,99.90
2022-09-17T18:29:58.505Z,99.90
2022-09-17T18:32:28.015Z,99.90
2022-09-17T18:34:55.874Z,99.90
2022-09-17T18:37:23.739Z,99.90
2022-09-17T18:39:59.710Z,99.90
2022-09-17T18:42:27.790Z,99.90
2022-09-17T18:44:55.805Z,99.90
2022-09-17T18:47:23.651Z,99.90
2022-09-17T18:49:53.186Z,99.90
2022-09-17T18:52:21.497Z,99.90
2022-09-17T18:54:49.410Z,99.90
2022-09-17T18:57:17.224Z,99.90
2022-09-17T18:59:45.141Z,99.90
2022-09-17T19:02:13.787Z,99.90
2022-09-17T19:04:41.692Z,99.90
2022-09-17T19:07:11.670Z,99.90
2022-09-17T19:09:39.795Z,99.90
2022-09-17T19:12:07.854Z,99.90
2022-09-17T19:14:35.820Z,99.90
2022-09-17T19:17:03.653Z,99.90
2022-09-17T19:19:31.717Z,99.90
2022-09-17T19:21:59.657Z,99.90
2022-09-17T19:24:29.273Z,99.90
2022-09-17T19:26:58.800Z,99.90
2022-09-17T19:29:27.087Z,99.90
2022-09-17T19:31:55.150Z,99.90
2022-09-17T19:34:23.014Z,99.90
2022-09-17T19:36:50.823Z,99.90
2022-09-17T19:39:19.032Z,99.90
2022-09-17T19:41:48.497Z,99.90
2022-09-17T19:44:16.491Z,99.90
2022-09-17T19:46:45.171Z,99.90
2022-09-17T19:49:14.002Z,99.90
2022-09-17T19:51:41.870Z,99.90
2022-09-17T19:54:10.327Z,99.90
2022-09-17T19:56:38.759Z,99.90
2022-09-17T19:59:08.939Z,99.90
2022-09-17T20:01:36.883Z,99.90
2022-09-17T20:04:04.834Z,99.90
2022-09-17T20:06:34.531Z,99.90
2022-09-17T20:09:03.277Z,99.90
2022-09-17T20:11:31.355Z,99.90
2022-09-17T20:14:03.012Z,99.90
2022-09-17T20:16:32.578Z,99.90
2022-09-17T20:19:01.487Z,99.90
2022-09-17T20:21:31.221Z,99.90
2022-09-17T20:23:59.922Z,99.90
2022-09-17T20:26:29.550Z,99.90
2022-09-17T20:28:58.215Z,99.90
2022-09-17T20:31:27.760Z,99.90
2022-09-17T20:33:58.661Z,99.90
2022-09-17T20:36:28.541Z,99.90
2022-09-17T20:39:22.451Z,99.90
2022-09-17T20:41:44.263Z,99.90
2022-09-17T20:44:12.275Z,99.90
2022-09-17T20:46:40.208Z,99.90
2022-09-17T20:49:09.843Z,99.90
2022-09-17T20:51:38.611Z,99.90
2022-09-17T20:54:07.577Z,99.90
2022-09-17T20:56:36.954Z,99.90
2022-09-17T20:59:14.287Z,99.90
2022-09-17T21:01:44.929Z,99.90
2022-09-17T21:04:16.986Z,99.90
2022-09-17T21:06:46.024Z,99.90
2022-09-17T21:09:16.981Z,99.90
2022-09-17T21:11:45.490Z,99.90
2022-09-17T21:14:15.543Z,99.90
2022-09-17T21:16:43.430Z,99.90
2022-09-17T21:19:19.990Z,99.90
2022-09-17T21:21:51.632Z,99.90
2022-09-17T21:24:21.014Z,99.90
2022-09-17T21:26:49.843Z,99.90
2022-09-17T21:29:17.735Z,99.90
2022-09-17T21:31:46.088Z,99.90
2022-09-17T21:34:14.974Z,99.90
2022-09-17T21:36:46.431Z,99.90
2022-09-17T21:39:15.945Z,99.90
2022-09-17T21:41:44.397Z,99.90
2022-09-17T21:44:13.174Z,99.90
2022-09-17T21:46:42.703Z,99.90
2022-09-17T21:49:11.257Z,99.90
2022-09-17T21:51:40.786Z,99.90
2022-09-17T21:54:12.025Z,99.90
2022-09-17T21:56:40.237Z,99.90
2022-09-17T21:59:11.096Z,99.90
2022-09-17T22:01:41.389Z,99.90
2022-09-17T22:04:11.256Z,99.90
2022-09-17T22:06:39.536Z,99.90
2022-09-17T22:09:14.091Z,99.90
2022-09-17T22:11:41.938Z,99.90
2022-09-17T22:14:13.515Z,99.90
2022-09-17T22:16:43.713Z,99.90
2022-09-17T22:19:17.428Z,99.90
2022-09-17T22:21:48.067Z,99.90
2022-09-17T22:24:18.333Z,99.90
2022-09-17T22:26:50.781Z,99.90
2022-09-17T22:29:23.234Z,99.90
2022-09-17T22:31:51.468Z,99.90
2022-09-17T22:34:21.015Z,99.90
2022-09-17T22:36:49.340Z,99.90
2022-09-17T22:39:20.809Z,99.90
2022-09-17T22:41:50.061Z,99.90
2022-09-17T22:44:19.018Z,99.90
2022-09-17T22:46:48.254Z,99.90
2022-09-17T22:49:18.187Z,99.90
2022-09-17T22:51:47.522Z,99.90
2022-09-17T22:54:19.413Z,99.90
2022-09-17T22:56:48.744Z,99.90
2022-09-17T22:59:18.116Z,99.90
2022-09-17T23:01:46.515Z,99.90
2022-09-17T23:04:14.622Z,99.90
2022-09-17T23:06:42.996Z,99.90
2022-09-17T23:09:12.842Z,99.90
2022-09-17T23:11:42.614Z,99.90
2022-09-17T23:14:13.335Z,99.90
2022-09-17T23:16:43.389Z,99.90
2022-09-17T23:19:20.847Z,99.90
2022-09-17T23:21:48.850Z,99.90
2022-09-17T23:24:19.343Z,99.90
2022-09-17T23:26:49.769Z,99.90
2022-09-17T23:29:17.968Z,99.90
2022-09-17T23:31:46.015Z,99.90
2022-09-17T23:34:14.082Z,99.90
2022-09-17T23:36:42.131Z,99.90
2022-09-17T23:39:14.686Z,99.90
2022-09-17T23:41:45.455Z,99.90
2022-09-17T23:44:16.479Z,99.90
2022-09-17T23:46:46.040Z,99.90
2022-09-17T23:49:15.103Z,99.90
2022-09-17T23:51:46.012Z,99.90
2022-09-17T23:54:14.214Z,99.90
2022-09-17T23:56:42.464Z,99.90
2022-09-17T23:59:11.868Z,99.90
